createdAt,value
2022-08-01T00:42:48.829Z,53.97
2022-08-01T00:43:29.334Z,54.34
2022-08-01T00:44:14.796Z,54.77
2022-08-01T00:45:07.852Z,54.30
2022-08-01T00:47:11.512Z,54.03
2022-08-01T00:47:57.558Z,53.92
2022-08-01T00:48:42.121Z,53.86
2022-08-01T00:49:16.718Z,54.19
2022-08-01T00:49:52.169Z,54.06
2022-08-01T00:50:27.224Z,53.52
2022-08-01T00:51:09.517Z,53.57
2022-08-01T00:51:58.008Z,53.74
2022-08-01T00:52:37.968Z,53.82
2022-08-01T00:53:19.603Z,53.71
2022-08-01T00:54:03.689Z,53.42
2022-08-01T00:54:50.833Z,53.97
2022-08-01T02:22:54.885Z,53.87
2022-08-01T02:23:30.003Z,53.77
2022-08-01T03:32:47.676Z,53.43
2022-08-01T03:33:19.038Z,53.77
2022-08-01T03:33:50.427Z,53.43
2022-08-01T03:34:21.806Z,53.94
2022-08-01T03:34:53.179Z,53.82
2022-08-01T03:35:24.604Z,53.68
2022-08-01T03:35:56.001Z,53.68
2022-08-01T03:36:27.391Z,53.56
2022-08-01T03:37:07.655Z,53.53
2022-08-01T03:37:59.909Z,53.23
2022-08-01T03:38:33.679Z,53.73
2022-08-01T03:39:05.034Z,53.75
2022-08-01T03:39:38.327Z,53.81
2022-08-01T03:40:18.648Z,53.73
2022-08-01T03:40:54.319Z,53.51
2022-08-01T03:41:26.308Z,53.68
2022-08-01T03:41:59.102Z,53.60
2022-08-01T03:42:34.896Z,53.31
2022-08-01T03:43:07.362Z,53.82
2022-08-01T03:43:42.234Z,53.98
2022-08-01T03:44:16.569Z,53.77
2022-08-01T03:44:48.870Z,53.81
2022-08-01T03:45:21.465Z,53.78
2022-08-01T03:45:52.969Z,53.57
2022-08-01T03:46:28.033Z,53.99
2022-08-01T03:47:00.699Z,53.75
2022-08-01T03:47:33.235Z,53.74
2022-08-01T03:48:06.306Z,53.93
2022-08-01T03:48:39.139Z,53.48
2022-08-01T03:49:21.413Z,53.65
2022-08-01T03:49:52.934Z,53.31
2022-08-01T03:50:24.348Z,53.60
2022-08-01T03:50:55.704Z,53.46
2022-08-01T03:51:27.008Z,53.22
2022-08-01T03:51:58.370Z,53.41
2022-08-01T03:52:29.830Z,53.57
2022-08-01T03:53:01.280Z,53.66
2022-08-01T03:53:32.839Z,53.43
2022-08-01T03:54:04.163Z,53.20
2022-08-01T03:54:39.523Z,53.28
2022-08-01T03:55:10.875Z,53.55
2022-08-01T03:55:42.455Z,53.28
2022-08-01T03:56:13.834Z,53.68
2022-08-01T03:56:45.252Z,53.71
2022-08-01T03:57:36.438Z,53.41
2022-08-01T03:58:09.829Z,53.73
2022-08-01T03:58:41.341Z,53.44
2022-08-01T03:59:12.685Z,53.53
2022-08-01T03:59:44.029Z,53.79
2022-08-01T04:00:15.400Z,53.41
2022-08-01T04:00:46.744Z,53.48
2022-08-01T04:01:18.136Z,53.50
2022-08-01T04:01:49.593Z,53.79
2022-08-01T04:02:23.363Z,53.18
2022-08-01T04:02:54.717Z,53.48
2022-08-01T04:03:26.115Z,53.36
2022-08-01T04:03:58.710Z,53.58
2022-08-01T04:04:30.085Z,53.74
2022-08-01T04:05:01.430Z,54.03
2022-08-01T04:05:32.817Z,54.04
2022-08-01T04:06:07.010Z,53.52
2022-08-01T04:06:38.919Z,53.78
2022-08-01T04:07:36.203Z,53.79
2022-08-01T04:08:07.516Z,53.45
2022-08-01T04:08:39.012Z,53.43
2022-08-01T04:09:13.605Z,53.68
2022-08-01T04:09:45.387Z,53.34
2022-08-01T04:10:16.998Z,53.46
2022-08-01T04:10:50.342Z,53.05
2022-08-01T04:11:22.165Z,53.29
2022-08-01T04:11:53.518Z,53.35
2022-08-01T04:12:24.951Z,53.56
2022-08-01T04:12:56.251Z,53.08
2022-08-01T04:13:29.423Z,53.50
2022-08-01T04:14:09.415Z,53.00
2022-08-01T04:14:40.837Z,53.38
2022-08-01T04:15:12.171Z,52.97
2022-08-01T04:15:43.522Z,53.15
2022-08-01T04:16:14.873Z,53.08
2022-08-01T04:16:46.258Z,52.73
2022-08-01T04:17:17.815Z,52.79
2022-08-01T04:17:49.164Z,53.18
2022-08-01T04:18:20.520Z,53.04
2022-08-01T04:18:51.852Z,52.68
2022-08-01T04:19:23.201Z,52.89
2022-08-01T04:19:54.504Z,52.85
2022-08-01T04:20:25.850Z,52.92
2022-08-01T04:20:57.326Z,52.69
2022-08-01T04:21:30.306Z,52.79
2022-08-01T04:22:01.637Z,52.82
2022-08-01T04:22:37.175Z,53.04
2022-08-01T04:23:08.973Z,53.15
2022-08-01T04:23:41.022Z,53.03
2022-08-01T04:24:16.180Z,52.96
2022-08-01T04:24:51.148Z,52.53
2022-08-01T04:25:29.421Z,53.07
2022-08-01T04:26:00.751Z,52.64
2022-08-01T04:26:32.965Z,52.89
2022-08-01T04:27:06.936Z,52.92
2022-08-01T04:27:49.125Z,52.87
2022-08-01T04:28:24.018Z,53.13
2022-08-01T04:28:55.340Z,52.78
2022-08-01T04:29:26.789Z,52.66
2022-08-01T04:29:59.013Z,52.71
2022-08-01T04:30:31.215Z,52.99
2022-08-01T04:31:02.587Z,52.58
2022-08-01T04:31:33.910Z,52.80
2022-08-01T04:32:05.618Z,52.82
2022-08-01T04:32:38.724Z,52.78
2022-08-01T04:33:10.053Z,52.83
2022-08-01T04:33:41.667Z,52.76
2022-08-01T04:34:13.662Z,52.77
2022-08-01T04:34:44.981Z,52.77
2022-08-01T04:35:23.147Z,52.89
2022-08-01T04:36:08.151Z,52.72
2022-08-01T04:36:39.499Z,52.32
2022-08-01T04:37:10.793Z,52.57
2022-08-01T04:37:45.260Z,52.86
2022-08-01T04:38:18.492Z,52.76
2022-08-01T04:38:50.485Z,52.49
2022-08-01T04:39:21.837Z,53.01
2022-08-01T04:39:53.328Z,53.00
2022-08-01T04:40:24.689Z,53.07
2022-08-01T04:40:56.066Z,52.96
2022-08-01T04:41:27.410Z,52.83
2022-08-01T04:42:01.512Z,53.13
2022-08-01T04:42:33.733Z,52.74
2022-08-01T04:43:05.107Z,52.75
2022-08-01T04:43:37.594Z,53.11
2022-08-01T04:44:08.950Z,53.04
2022-08-01T04:44:40.280Z,52.91
2022-08-01T04:45:11.669Z,52.60
2022-08-01T04:45:43.421Z,52.68
2022-08-01T04:46:14.951Z,53.00
2022-08-01T04:46:46.253Z,52.71
2022-08-01T04:47:17.716Z,52.92
2022-08-01T04:47:49.022Z,52.54
2022-08-01T04:48:20.366Z,52.86
2022-08-01T04:48:54.214Z,52.88
2022-08-01T04:49:25.745Z,52.46
2022-08-01T04:49:57.142Z,52.61
2022-08-01T04:50:28.683Z,52.92
2022-08-01T04:51:00.231Z,52.91
2022-08-01T04:51:31.584Z,52.65
2022-08-01T04:52:03.298Z,52.91
2022-08-01T04:52:37.971Z,52.89
2022-08-01T04:53:13.858Z,52.59
2022-08-01T04:53:45.711Z,52.47
2022-08-01T04:54:17.094Z,52.90
2022-08-01T04:54:48.490Z,52.82
2022-08-01T04:55:19.815Z,52.82
2022-08-01T04:55:51.238Z,52.84
2022-08-01T04:56:22.572Z,52.88
2022-08-01T04:56:54.352Z,52.71
2022-08-01T04:57:25.710Z,52.48
2022-08-01T04:57:57.051Z,52.61
2022-08-01T04:58:28.422Z,52.63
2022-08-01T04:58:59.753Z,52.70
2022-08-01T04:59:31.388Z,52.84
2022-08-01T05:00:02.831Z,52.43
2022-08-01T05:00:34.167Z,52.51
2022-08-01T05:01:05.531Z,52.39
2022-08-01T05:01:36.994Z,52.28
2022-08-01T05:02:09.197Z,52.67
2022-08-01T05:02:40.610Z,52.69
2022-08-01T05:03:11.936Z,52.25
2022-08-01T05:03:43.297Z,52.52
2022-08-01T05:04:14.623Z,52.74
2022-08-01T05:04:46.266Z,52.55
2022-08-01T05:05:17.647Z,52.87
2022-08-01T05:05:48.993Z,52.73
2022-08-01T05:06:20.322Z,52.86
2022-08-01T05:06:51.650Z,52.73
2022-08-01T05:07:23.085Z,52.79
2022-08-01T05:07:54.439Z,52.35
2022-08-01T05:08:25.774Z,52.29
2022-08-01T05:08:57.116Z,52.81
2022-08-01T05:09:31.190Z,52.46
2022-08-01T05:10:03.841Z,52.32
2022-08-01T05:10:37.687Z,52.82
2022-08-01T05:11:09.046Z,52.66
2022-08-01T05:11:40.375Z,52.79
2022-08-01T05:12:11.786Z,52.78
2022-08-01T05:12:43.125Z,53.14
2022-08-01T05:13:14.485Z,53.00
2022-08-01T05:13:45.839Z,52.98
2022-08-01T05:14:19.691Z,52.55
2022-08-01T05:14:51.036Z,52.90
2022-08-01T05:15:22.512Z,52.66
2022-08-01T05:15:53.977Z,53.04
2022-08-01T05:16:25.364Z,52.93
2022-08-01T05:16:56.681Z,53.05
2022-08-01T05:17:28.009Z,53.04
2022-08-01T05:17:59.540Z,52.98
2022-08-01T05:18:30.959Z,52.85
2022-08-01T05:19:02.350Z,52.52
2022-08-01T05:19:34.169Z,52.79
2022-08-01T05:20:05.724Z,52.89
2022-08-01T05:20:37.129Z,52.97
2022-08-01T05:21:08.474Z,52.62
2022-08-01T05:21:39.842Z,53.11
2022-08-01T05:22:11.291Z,53.08
2022-08-01T05:22:42.648Z,53.03
2022-08-01T05:23:42.109Z,52.80
2022-08-01T05:24:05.688Z,52.81
2022-08-01T05:24:37.613Z,52.98
2022-08-01T05:25:12.238Z,52.98
2022-08-01T05:25:57.771Z,52.58
2022-08-01T05:26:30.327Z,53.00
2022-08-01T05:27:03.534Z,52.99
2022-08-01T05:27:35.047Z,52.86
2022-08-01T05:28:06.394Z,52.48
2022-08-01T05:28:37.839Z,53.16
2022-08-01T05:29:09.186Z,52.64
2022-08-01T05:29:44.610Z,52.88
2022-08-01T05:30:16.331Z,52.98
2022-08-01T05:30:47.685Z,52.84
2022-08-01T05:31:19.118Z,52.90
2022-08-01T05:31:50.630Z,52.89
2022-08-01T05:32:22.025Z,52.47
2022-08-01T05:32:53.445Z,52.60
2022-08-01T05:33:24.779Z,52.97
2022-08-01T05:33:56.270Z,52.89
2022-08-01T05:34:27.627Z,52.86
2022-08-01T05:34:58.958Z,52.74
2022-08-01T05:35:48.907Z,53.04
2022-08-01T05:36:20.714Z,52.89
2022-08-01T05:36:55.382Z,52.78
2022-08-01T05:37:29.094Z,52.77
2022-08-01T05:38:00.460Z,53.08
2022-08-01T05:38:31.806Z,52.53
2022-08-01T05:39:03.113Z,52.90
2022-08-01T05:39:34.433Z,52.90
2022-08-01T05:40:06.146Z,52.67
2022-08-01T05:40:37.532Z,52.74
2022-08-01T05:41:08.914Z,52.51
2022-08-01T05:41:40.459Z,52.58
2022-08-01T05:42:11.773Z,52.87
2022-08-01T05:42:43.091Z,53.00
2022-08-01T05:43:14.438Z,52.83
2022-08-01T05:43:45.821Z,52.51
2022-08-01T05:44:17.142Z,52.66
2022-08-01T05:44:48.516Z,52.68
2022-08-01T05:45:19.880Z,52.69
2022-08-01T05:45:51.212Z,52.99
2022-08-01T05:46:22.564Z,53.09
2022-08-01T05:46:57.660Z,52.77
2022-08-01T05:47:29.023Z,53.02
2022-08-01T05:48:00.349Z,53.15
2022-08-01T05:48:31.678Z,52.67
2022-08-01T05:49:03.403Z,52.77
2022-08-01T05:49:34.940Z,53.03
2022-08-01T05:50:06.597Z,53.04
2022-08-01T05:50:37.960Z,52.98
2022-08-01T05:51:09.320Z,52.73
2022-08-01T05:51:40.810Z,53.15
2022-08-01T05:52:12.262Z,52.76
2022-08-01T05:52:43.608Z,52.79
2022-08-01T05:53:15.033Z,53.11
2022-08-01T05:53:46.349Z,52.81
2022-08-01T05:54:17.723Z,52.60
2022-08-01T05:54:49.048Z,52.94
2022-08-01T05:55:20.415Z,52.80
2022-08-01T05:55:51.800Z,52.97
2022-08-01T05:56:23.120Z,53.04
2022-08-01T05:56:54.466Z,52.72
2022-08-01T05:57:25.820Z,53.05
2022-08-01T05:57:57.326Z,52.67
2022-08-01T05:58:28.642Z,52.65
2022-08-01T05:58:59.977Z,53.05
2022-08-01T05:59:31.316Z,52.66
2022-08-01T06:00:02.665Z,52.58
2022-08-01T06:00:34.012Z,52.86
2022-08-01T06:01:05.441Z,52.65
2022-08-01T06:01:36.856Z,53.00
2022-08-01T06:02:08.680Z,53.05
2022-08-01T06:02:43.107Z,52.58
2022-08-01T06:03:14.548Z,52.66
2022-08-01T06:03:45.968Z,52.86
2022-08-01T06:04:17.341Z,53.11
2022-08-01T06:04:48.757Z,52.79
2022-08-01T06:05:20.114Z,53.10
2022-08-01T06:05:54.582Z,52.85
2022-08-01T06:06:26.212Z,52.69
2022-08-01T06:06:57.573Z,52.86
2022-08-01T06:07:28.920Z,52.88
2022-08-01T06:08:00.289Z,52.76
2022-08-01T06:08:31.694Z,52.79
2022-08-01T06:09:03.013Z,52.84
2022-08-01T06:09:34.396Z,52.48
2022-08-01T06:10:06.065Z,52.80
2022-08-01T06:10:37.412Z,53.15
2022-08-01T06:11:08.849Z,52.81
2022-08-01T06:11:40.319Z,52.91
2022-08-01T06:12:11.747Z,52.91
2022-08-01T06:12:43.103Z,52.75
2022-08-01T06:13:14.500Z,53.16
2022-08-01T06:13:48.725Z,52.89
2022-08-01T06:14:20.369Z,52.78
2022-08-01T06:14:51.690Z,52.70
2022-08-01T06:15:23.059Z,52.96
2022-08-01T06:15:54.452Z,53.05
2022-08-01T06:16:25.789Z,53.04
2022-08-01T06:16:57.161Z,53.20
2022-08-01T06:17:28.539Z,52.94
2022-08-01T06:17:59.957Z,52.99
2022-08-01T06:18:31.327Z,52.55
2022-08-01T06:19:02.986Z,52.54
2022-08-01T06:19:34.395Z,52.98
2022-08-01T06:20:06.035Z,52.82
2022-08-01T06:20:37.393Z,52.64
2022-08-01T06:21:08.714Z,53.04
2022-08-01T06:21:40.083Z,52.93
2022-08-01T06:22:11.414Z,52.61
2022-08-01T06:22:42.739Z,52.81
2022-08-01T06:23:31.560Z,52.82
2022-08-01T06:24:03.936Z,52.60
2022-08-01T06:24:35.264Z,52.69
2022-08-01T06:25:07.022Z,52.88
2022-08-01T06:25:38.566Z,52.99
2022-08-01T06:26:09.924Z,52.79
2022-08-01T06:26:41.483Z,53.06
2022-08-01T06:27:22.344Z,52.97
2022-08-01T06:27:54.088Z,52.88
2022-08-01T06:28:25.491Z,53.11
2022-08-01T06:28:56.964Z,53.16
2022-08-01T06:29:28.300Z,53.05
2022-08-01T06:30:02.751Z,52.90
2022-08-01T06:30:34.171Z,53.09
2022-08-01T06:31:05.657Z,52.93
2022-08-01T06:31:37.020Z,52.59
2022-08-01T06:32:08.576Z,52.74
2022-08-01T06:32:40.195Z,52.62
2022-08-01T06:33:11.553Z,52.76
2022-08-01T06:33:42.928Z,52.72
2022-08-01T06:34:14.284Z,52.79
2022-08-01T06:34:45.633Z,52.80
2022-08-01T06:35:17.133Z,52.62
2022-08-01T06:35:48.562Z,52.95
2022-08-01T06:36:19.934Z,52.75
2022-08-01T06:36:51.307Z,52.40
2022-08-01T06:37:22.810Z,52.67
2022-08-01T06:37:54.159Z,52.53
2022-08-01T06:38:25.490Z,52.66
2022-08-01T06:38:56.849Z,52.70
2022-08-01T06:39:28.168Z,52.57
2022-08-01T06:40:03.694Z,52.88
2022-08-01T06:40:35.043Z,52.60
2022-08-01T06:41:07.969Z,52.39
2022-08-01T06:41:39.396Z,52.90
2022-08-01T06:42:10.792Z,52.72
2022-08-01T06:42:42.158Z,52.77
2022-08-01T06:43:13.506Z,52.40
2022-08-01T06:43:44.900Z,52.80
2022-08-01T06:44:16.235Z,52.61
2022-08-01T06:44:47.557Z,52.74
2022-08-01T06:45:18.906Z,52.69
2022-08-01T06:45:50.243Z,52.54
2022-08-01T06:46:21.878Z,52.92
2022-08-01T06:46:53.232Z,52.41
2022-08-01T06:47:24.582Z,52.60
2022-08-01T06:47:55.938Z,52.61
2022-08-01T06:48:27.290Z,53.01
2022-08-01T06:48:58.741Z,52.68
2022-08-01T06:49:30.256Z,52.69
2022-08-01T06:50:01.686Z,52.46
2022-08-01T06:50:33.250Z,52.87
2022-08-01T06:51:04.585Z,52.99
2022-08-01T06:51:35.978Z,53.19
2022-08-01T06:52:07.709Z,53.11
2022-08-01T06:52:39.487Z,52.77
2022-08-01T06:53:10.788Z,52.65
2022-08-01T06:53:42.173Z,52.64
2022-08-01T06:54:15.525Z,52.72
2022-08-01T06:54:46.888Z,52.87
2022-08-01T06:55:18.216Z,53.04
2022-08-01T06:55:49.541Z,52.85
2022-08-01T06:56:20.918Z,53.07
2022-08-01T06:56:52.253Z,52.85
2022-08-01T06:57:23.629Z,52.98
2022-08-01T06:57:54.955Z,52.96
2022-08-01T06:58:30.885Z,52.95
2022-08-01T06:59:03.237Z,53.02
2022-08-01T06:59:34.821Z,52.66
2022-08-01T07:00:06.814Z,52.48
2022-08-01T07:00:38.221Z,52.49
2022-08-01T07:01:09.640Z,52.39
2022-08-01T07:01:41.131Z,52.90
2022-08-01T07:02:12.518Z,52.80
2022-08-01T07:02:43.863Z,52.69
2022-08-01T07:03:15.186Z,52.58
2022-08-01T07:03:54.477Z,52.57
2022-08-01T07:04:26.442Z,52.46
2022-08-01T07:04:57.851Z,52.55
2022-08-01T07:05:29.203Z,52.81
2022-08-01T07:06:00.573Z,52.84
2022-08-01T07:06:32.489Z,52.53
2022-08-01T07:07:03.912Z,52.52
2022-08-01T07:07:35.274Z,52.70
2022-08-01T07:08:06.609Z,52.44
2022-08-01T07:08:37.968Z,52.78
2022-08-01T07:09:14.194Z,52.47
2022-08-01T07:09:46.158Z,52.77
2022-08-01T07:10:17.494Z,52.37
2022-08-01T07:10:48.863Z,52.54
2022-08-01T07:11:20.461Z,52.64
2022-08-01T07:11:51.843Z,52.36
2022-08-01T07:12:23.162Z,52.39
2022-08-01T07:12:54.631Z,52.68
2022-08-01T07:13:36.718Z,52.41
2022-08-01T07:14:15.597Z,52.52
2022-08-01T07:14:46.963Z,52.53
2022-08-01T07:15:18.330Z,52.26
2022-08-01T07:15:49.652Z,52.47
2022-08-01T07:16:21.030Z,52.41
2022-08-01T07:16:52.470Z,52.17
2022-08-01T07:17:23.818Z,52.33
2022-08-01T07:17:55.150Z,52.22
2022-08-01T07:18:26.495Z,52.01
2022-08-01T07:18:57.795Z,52.48
2022-08-01T07:19:29.099Z,52.46
2022-08-01T07:20:00.655Z,52.53
2022-08-01T07:20:36.238Z,52.32
2022-08-01T07:21:16.364Z,52.49
2022-08-01T07:22:00.741Z,52.25
2022-08-01T07:22:35.420Z,52.33
2022-08-01T07:23:08.573Z,52.36
2022-08-01T07:23:39.904Z,52.47
2022-08-01T07:24:17.384Z,52.49
2022-08-01T07:24:54.508Z,52.38
2022-08-01T07:25:26.133Z,52.16
2022-08-01T07:26:00.752Z,52.31
2022-08-01T07:26:32.488Z,52.60
2022-08-01T07:27:21.457Z,52.44
2022-08-01T07:27:55.268Z,52.32
2022-08-01T07:28:26.618Z,52.66
2022-08-01T07:28:58.023Z,52.64
2022-08-01T07:29:29.385Z,52.33
2022-08-01T07:30:00.732Z,52.13
2022-08-01T07:30:32.096Z,52.26
2022-08-01T07:31:03.455Z,52.49
2022-08-01T07:31:34.812Z,52.28
2022-08-01T07:32:06.903Z,52.39
2022-08-01T07:32:38.543Z,52.46
2022-08-01T07:33:09.879Z,52.27
2022-08-01T07:33:47.725Z,52.33
2022-08-01T07:34:20.488Z,52.63
2022-08-01T07:34:51.967Z,52.41
2022-08-01T07:35:23.368Z,52.41
2022-08-01T07:35:54.925Z,52.54
2022-08-01T07:36:26.344Z,52.72
2022-08-01T07:36:57.710Z,52.37
2022-08-01T07:37:45.294Z,52.78
2022-08-01T07:38:20.214Z,52.23
2022-08-01T07:38:51.809Z,52.55
2022-08-01T07:39:23.195Z,52.35
2022-08-01T07:39:54.626Z,52.34
2022-08-01T07:40:26.018Z,52.58
2022-08-01T07:40:57.389Z,52.25
2022-08-01T07:41:52.914Z,52.18
2022-08-01T07:42:20.117Z,52.33
2022-08-01T07:42:51.461Z,52.11
2022-08-01T07:43:22.845Z,52.18
2022-08-01T07:43:58.015Z,52.24
2022-08-01T07:44:31.958Z,52.27
2022-08-01T07:45:03.333Z,52.30
2022-08-01T07:45:34.693Z,52.14
2022-08-01T07:46:06.142Z,52.13
2022-08-01T07:46:37.470Z,52.25
2022-08-01T07:47:08.978Z,52.22
2022-08-01T07:47:40.385Z,52.07
2022-08-01T07:48:11.752Z,52.30
2022-08-01T07:48:43.248Z,52.17
2022-08-01T07:49:14.682Z,52.17
2022-08-01T07:49:46.074Z,52.16
2022-08-01T07:50:17.453Z,52.26
2022-08-01T07:50:48.783Z,52.15
2022-08-01T07:51:20.142Z,52.33
2022-08-01T07:52:04.078Z,52.37
2022-08-01T07:52:35.960Z,52.16
2022-08-01T07:53:07.445Z,52.27
2022-08-01T07:53:38.798Z,52.07
2022-08-01T07:54:10.147Z,52.11
2022-08-01T07:54:41.496Z,51.89
2022-08-01T07:55:16.588Z,52.09
2022-08-01T07:55:48.344Z,52.01
2022-08-01T07:56:19.757Z,52.20
2022-08-01T07:56:51.306Z,52.13
2022-08-01T07:57:22.963Z,51.87
2022-08-01T07:57:54.331Z,51.90
2022-08-01T07:58:25.721Z,51.95
2022-08-01T07:58:57.059Z,52.16
2022-08-01T07:59:28.422Z,51.95
2022-08-01T07:59:59.787Z,52.15
2022-08-01T08:00:31.134Z,52.37
2022-08-01T08:01:02.565Z,52.13
2022-08-01T08:01:33.969Z,52.10
2022-08-01T08:02:05.650Z,51.94
2022-08-01T08:02:37.365Z,52.25
2022-08-01T08:03:08.781Z,52.12
2022-08-01T08:03:40.129Z,52.09
2022-08-01T08:04:11.473Z,52.01
2022-08-01T08:04:46.982Z,51.97
2022-08-01T08:05:57.950Z,52.24
2022-08-01T08:06:11.484Z,52.06
2022-08-01T08:06:42.801Z,51.96
2022-08-01T08:07:14.190Z,52.18
2022-08-01T08:07:45.539Z,52.13
2022-08-01T08:08:18.015Z,51.89
2022-08-01T08:08:49.375Z,52.10
2022-08-01T08:09:20.735Z,52.23
2022-08-01T08:09:52.141Z,52.26
2022-08-01T08:10:23.467Z,52.17
2022-08-01T08:10:54.813Z,52.32
2022-08-01T08:11:26.225Z,51.91
2022-08-01T08:12:01.394Z,52.09
2022-08-01T08:12:32.987Z,52.08
2022-08-01T08:13:04.452Z,51.69
2022-08-01T08:13:36.933Z,52.09
2022-08-01T08:14:08.283Z,51.68
2022-08-01T08:14:39.646Z,51.76
2022-08-01T08:15:11.071Z,52.02
2022-08-01T08:15:42.390Z,51.69
2022-08-01T08:16:19.646Z,51.90
2022-08-01T08:16:51.155Z,51.70
2022-08-01T08:17:22.525Z,51.73
2022-08-01T08:17:55.297Z,52.08
2022-08-01T08:18:26.824Z,52.04
2022-08-01T08:18:58.148Z,52.09
2022-08-01T08:19:37.822Z,52.01
2022-08-01T08:20:10.122Z,52.01
2022-08-01T08:20:41.436Z,52.24
2022-08-01T08:21:12.768Z,52.14
2022-08-01T08:21:44.120Z,52.03
2022-08-01T08:22:15.480Z,51.93
2022-08-01T08:22:46.854Z,52.19
2022-08-01T08:23:41.201Z,51.97
2022-08-01T08:24:09.549Z,51.93
2022-08-01T08:24:46.477Z,51.92
2022-08-01T08:25:18.393Z,52.04
2022-08-01T08:25:49.918Z,51.80
2022-08-01T08:26:21.281Z,51.65
2022-08-01T08:26:53.298Z,51.75
2022-08-01T08:27:24.650Z,52.00
2022-08-01T08:27:56.005Z,51.84
2022-08-01T08:28:28.288Z,51.79
2022-08-01T08:28:59.715Z,51.97
2022-08-01T08:29:31.332Z,51.77
2022-08-01T08:30:03.526Z,52.02
2022-08-01T08:30:34.892Z,51.86
2022-08-01T08:31:06.260Z,51.68
2022-08-01T08:31:50.743Z,51.69
2022-08-01T08:32:23.819Z,51.79
2022-08-01T08:32:55.295Z,52.04
2022-08-01T08:33:26.640Z,51.90
2022-08-01T08:33:57.970Z,52.16
2022-08-01T08:34:29.482Z,52.09
2022-08-01T08:35:00.849Z,52.37
2022-08-01T08:35:40.456Z,52.13
2022-08-01T08:36:30.813Z,51.84
2022-08-01T08:37:02.712Z,52.29
2022-08-01T08:37:37.961Z,52.02
2022-08-01T08:38:14.160Z,51.85
2022-08-01T08:38:46.288Z,52.16
2022-08-01T08:39:19.776Z,52.20
2022-08-01T08:39:51.309Z,52.19
2022-08-01T08:40:22.678Z,52.08
2022-08-01T08:40:54.096Z,52.20
2022-08-01T08:41:25.446Z,52.29
2022-08-01T08:41:59.732Z,52.03
2022-08-01T08:42:31.090Z,51.99
2022-08-01T08:43:02.443Z,51.90
2022-08-01T08:43:33.794Z,51.96
2022-08-01T08:44:05.693Z,51.93
2022-08-01T08:44:43.409Z,52.07
2022-08-01T08:45:15.448Z,51.74
2022-08-01T08:45:58.960Z,51.70
2022-08-01T08:46:31.681Z,51.85
2022-08-01T08:47:05.203Z,51.83
2022-08-01T08:47:36.584Z,51.42
2022-08-01T08:48:07.938Z,51.82
2022-08-01T08:48:40.456Z,51.71
2022-08-01T08:49:12.373Z,51.86
2022-08-01T08:49:44.162Z,51.78
2022-08-01T08:50:20.221Z,51.82
2022-08-01T08:50:51.631Z,51.59
2022-08-01T08:51:23.630Z,51.52
2022-08-01T08:51:55.035Z,51.76
2022-08-01T08:52:26.490Z,51.86
2022-08-01T08:52:57.935Z,51.89
2022-08-01T08:53:34.502Z,51.65
2022-08-01T08:54:06.525Z,51.54
2022-08-01T08:54:38.259Z,51.37
2022-08-01T08:55:09.666Z,51.46
2022-08-01T08:55:56.099Z,51.39
2022-08-01T08:56:28.320Z,51.53
2022-08-01T08:57:00.106Z,51.19
2022-08-01T08:57:31.561Z,51.29
2022-08-01T08:58:02.983Z,51.26
2022-08-01T08:58:34.300Z,51.43
2022-08-01T08:59:05.673Z,51.27
2022-08-01T08:59:37.717Z,51.13
2022-08-01T09:00:09.439Z,51.27
2022-08-01T09:00:41.011Z,51.15
2022-08-01T09:01:12.607Z,51.21
2022-08-01T09:01:43.922Z,51.24
2022-08-01T09:02:15.265Z,51.54
2022-08-01T09:02:46.951Z,51.22
2022-08-01T09:03:18.387Z,51.28
2022-08-01T09:03:49.830Z,51.12
2022-08-01T09:04:26.363Z,51.17
2022-08-01T09:04:57.926Z,51.22
2022-08-01T09:05:39.060Z,51.57
2022-08-01T09:06:10.925Z,51.66
2022-08-01T09:06:42.289Z,51.41
2022-08-01T09:07:13.648Z,51.87
2022-08-01T09:07:44.989Z,51.19
2022-08-01T09:08:16.330Z,51.32
2022-08-01T09:08:47.691Z,51.48
2022-08-01T09:09:19.035Z,51.36
2022-08-01T09:09:51.484Z,51.12
2022-08-01T09:10:23.108Z,51.19
2022-08-01T09:10:54.506Z,51.30
2022-08-01T09:11:26.057Z,51.50
2022-08-01T09:11:58.205Z,51.31
2022-08-01T09:12:29.827Z,51.41
2022-08-01T09:13:04.881Z,51.50
2022-08-01T09:13:36.227Z,51.43
2022-08-01T09:14:10.170Z,51.42
2022-08-01T09:14:47.660Z,51.16
2022-08-01T09:15:19.311Z,51.10
2022-08-01T09:15:54.209Z,51.16
2022-08-01T09:16:25.550Z,51.25
2022-08-01T09:17:02.657Z,51.20
2022-08-01T09:17:40.728Z,51.17
2022-08-01T09:18:30.937Z,50.93
2022-08-01T09:19:39.515Z,51.28
2022-08-01T09:20:23.044Z,51.13
2022-08-01T09:21:07.933Z,51.35
2022-08-01T09:21:39.373Z,51.05
2022-08-01T09:22:17.273Z,51.33
2022-08-01T09:22:48.599Z,51.54
2022-08-01T09:23:32.629Z,51.42
2022-08-01T09:24:04.057Z,51.16
2022-08-01T09:24:35.552Z,51.30
2022-08-01T09:25:07.659Z,51.28
2022-08-01T09:25:51.550Z,51.38
2022-08-01T09:26:32.375Z,51.28
2022-08-01T09:27:22.228Z,51.02
2022-08-01T09:28:02.417Z,51.47
2022-08-01T09:28:33.775Z,51.42
2022-08-01T09:29:06.912Z,51.07
2022-08-01T09:29:40.942Z,51.01
2022-08-01T09:30:13.297Z,51.28
2022-08-01T09:30:48.707Z,51.00
2022-08-01T09:31:20.156Z,50.88
2022-08-01T09:31:51.513Z,51.04
2022-08-01T09:32:26.045Z,50.95
2022-08-01T09:32:58.289Z,50.98
2022-08-01T09:33:46.923Z,51.30
2022-08-01T09:34:28.464Z,51.03
2022-08-01T09:35:04.505Z,50.81
2022-08-01T09:35:43.201Z,50.87
2022-08-01T09:36:15.376Z,50.89
2022-08-01T09:36:55.399Z,50.71
2022-08-01T09:37:37.200Z,51.27
2022-08-01T09:38:14.891Z,50.79
2022-08-01T09:38:50.946Z,50.86
2022-08-01T09:39:29.234Z,50.79
2022-08-01T09:40:00.640Z,50.93
2022-08-01T09:40:50.518Z,51.12
2022-08-01T09:41:37.881Z,50.82
2022-08-01T09:42:28.807Z,50.99
2022-08-01T09:43:14.870Z,50.59
2022-08-01T09:43:49.883Z,50.67
2022-08-01T09:44:31.138Z,50.82
2022-08-01T09:45:11.403Z,50.86
2022-08-01T09:45:55.273Z,50.76
2022-08-01T09:46:28.586Z,50.68
2022-08-01T09:47:00.061Z,50.54
2022-08-01T09:47:39.618Z,50.88
2022-08-01T09:48:11.033Z,50.65
2022-08-01T09:49:00.366Z,50.63
2022-08-01T09:49:50.473Z,50.55
2022-08-01T09:50:23.174Z,50.64
2022-08-01T09:50:54.497Z,50.21
2022-08-01T09:51:59.761Z,50.64
2022-08-01T09:52:28.963Z,50.35
2022-08-01T09:53:00.577Z,50.73
2022-08-01T09:53:43.313Z,50.73
2022-08-01T09:54:29.765Z,50.70
2022-08-01T09:55:03.085Z,50.40
2022-08-01T09:55:34.803Z,50.46
2022-08-01T09:56:09.528Z,50.82
2022-08-01T09:56:41.487Z,50.84
2022-08-01T09:57:15.433Z,50.70
2022-08-01T09:57:55.689Z,50.77
2022-08-01T09:58:26.992Z,50.55
2022-08-01T09:59:00.986Z,50.67
2022-08-01T09:59:57.235Z,50.86
2022-08-01T10:00:44.760Z,50.55
2022-08-01T10:01:16.878Z,50.69
2022-08-01T10:01:48.671Z,50.72
2022-08-01T10:02:28.818Z,50.96
2022-08-01T10:03:01.089Z,50.64
2022-08-01T10:03:41.919Z,50.85
2022-08-01T10:04:17.516Z,50.96
2022-08-01T10:04:50.829Z,50.95
2022-08-01T10:05:31.721Z,50.46
2022-08-01T10:06:21.049Z,50.96
2022-08-01T10:07:04.559Z,50.61
2022-08-01T10:07:42.843Z,50.84
2022-08-01T10:08:14.713Z,50.78
2022-08-01T10:08:54.631Z,50.91
2022-08-01T10:09:40.197Z,50.55
2022-08-01T10:10:15.599Z,50.49
2022-08-01T10:11:05.591Z,50.98
2022-08-01T10:11:41.223Z,50.70
2022-08-01T10:12:16.488Z,50.86
2022-08-01T10:12:47.837Z,50.71
2022-08-01T10:13:20.550Z,50.28
2022-08-01T10:13:52.545Z,50.64
2022-08-01T10:14:25.009Z,50.75
2022-08-01T10:14:56.578Z,50.45
2022-08-01T10:15:37.026Z,50.09
2022-08-01T10:16:09.204Z,50.19
2022-08-01T10:16:40.570Z,50.29
2022-08-01T10:17:18.352Z,50.19
2022-08-01T10:17:54.449Z,50.30
2022-08-01T10:18:29.607Z,50.32
2022-08-01T10:19:00.949Z,50.14
2022-08-01T10:19:34.591Z,50.11
2022-08-01T10:20:06.221Z,49.95
2022-08-01T10:20:53.238Z,50.09
2022-08-01T10:21:57.463Z,49.91
2022-08-01T10:22:19.606Z,49.84
2022-08-01T10:22:52.079Z,49.72
2022-08-01T10:23:23.438Z,50.08
2022-08-01T10:24:11.686Z,49.72
2022-08-01T10:24:43.863Z,49.75
2022-08-01T10:25:15.217Z,49.82
2022-08-01T10:25:47.228Z,49.45
2022-08-01T10:26:18.774Z,49.41
2022-08-01T10:26:51.951Z,49.55
2022-08-01T10:27:35.829Z,49.27
2022-08-01T10:28:11.603Z,49.78
2022-08-01T10:28:43.228Z,49.64
2022-08-01T10:29:24.279Z,50.01
2022-08-01T10:30:19.482Z,49.84
2022-08-01T10:30:54.593Z,49.82
2022-08-01T10:31:30.820Z,49.66
2022-08-01T10:32:02.528Z,49.62
2022-08-01T10:32:37.605Z,49.48
2022-08-01T10:33:11.312Z,49.48
2022-08-01T10:33:53.365Z,49.49